sensor_id;sensor_type;location;lat;lon;timestamp;P1;durP1;ratioP1;P2;durP2;ratioP2
946;SDS011;460;48.734;9.152;2023-02-15T00:01:56;3.50;;;3.20;;
946;SDS011;460;48.734;9.152;2023-02-15T00:04:24;1.92;;;1.83;;
946;SDS011;460;48.734;9.152;2023-02-15T00:07:13;3.15;;;2.95;;
946;SDS011;460;48.734;9.152;2023-02-15T00:09:40;2.85;;;1.92;;
946;SDS011;460;48.734;9.152;2023-02-15T00:12:08;3.10;;;2.90;;
946;SDS011;460;48.734;9.152;2023-02-15T00:14:35;2.08;;;1.17;;
946;SDS011;460;48.734;9.152;2023-02-15T00:17:02;2.58;;;2.40;;
946;SDS011;460;48.734;9.152;2023-02-15T00:19:29;4.60;;;3.13;;
946;SDS011;460;48.734;9.152;2023-02-15T00:21:56;5.05;;;2.20;;
946;SDS011;460;48.734;9.152;2023-02-15T00:24:24;3.38;;;2.38;;
946;SDS011;460;48.734;9.152;2023-02-15T00:26:51;3.22;;;2.97;;
946;SDS011;460;48.734;9.152;2023-02-15T00:29:18;3.15;;;2.63;;
946;SDS011;460;48.734;9.152;2023-02-15T00:31:45;1.95;;;1.23;;
946;SDS011;460;48.734;9.152;2023-02-15T00:34:13;2.15;;;2.05;;
946;SDS011;460;48.734;9.152;2023-02-15T00:36:41;2.17;;;1.85;;
946;SDS011;460;48.734;9.152;2023-02-15T00:39:08;2.08;;;2.00;;
946;SDS011;460;48.734;9.152;2023-02-15T00:41:37;4.57;;;2.35;;
946;SDS011;460;48.734;9.152;2023-02-15T00:44:04;3.17;;;2.03;;
946;SDS011;460;48.734;9.152;2023-02-15T00:46:31;5.97;;;2.95;;
946;SDS011;460;48.734;9.152;2023-02-15T00:48:58;2.50;;;2.40;;
946;SDS011;460;48.734;9.152;2023-02-15T00:51:25;3.90;;;2.47;;
946;SDS011;460;48.734;9.152;2023-02-15T00:53:52;3.53;;;3.25;;
946;SDS011;460;48.734;9.152;2023-02-15T00:56:19;2.67;;;2.17;;
946;SDS011;460;48.734;9.152;2023-02-15T00:58:47;1.23;;;1.23;;
946;SDS011;460;48.734;9.152;2023-02-15T01:01:15;6.60;;;3.10;;
946;SDS011;460;48.734;9.152;2023-02-15T01:03:43;4.47;;;2.67;;
946;SDS011;460;48.734;9.152;2023-02-15T01:06:11;7.82;;;2.90;;
946;SDS011;460;48.734;9.152;2023-02-15T01:08:39;12.35;;;3.03;;
946;SDS011;460;48.734;9.152;2023-02-15T01:11:06;1.35;;;1.20;;
946;SDS011;460;48.734;9.152;2023-02-15T01:13:35;2.97;;;2.50;;
946;SDS011;460;48.734;9.152;2023-02-15T01:16:04;1.35;;;1.33;;
946;SDS011;460;48.734;9.152;2023-02-15T01:18:31;1.60;;;1.55;;
946;SDS011;460;48.734;9.152;2023-02-15T01:20:58;4.90;;;1.55;;
946;SDS011;460;48.734;9.152;2023-02-15T01:23:25;4.55;;;3.38;;
946;SDS011;460;48.734;9.152;2023-02-15T01:25:52;2.42;;;1.75;;
946;SDS011;460;48.734;9.152;2023-02-15T01:28:19;5.10;;;4.50;;
946;SDS011;460;48.734;9.152;2023-02-15T01:30:46;1.83;;;1.73;;
946;SDS011;460;48.734;9.152;2023-02-15T01:33:14;1.60;;;1.25;;
946;SDS011;460;48.734;9.152;2023-02-15T01:35:43;3.00;;;2.80;;
946;SDS011;460;48.734;9.152;2023-02-15T01:38:11;2.25;;;2.03;;
946;SDS011;460;48.734;9.152;2023-02-15T01:40:39;1.25;;;1.00;;
946;SDS011;460;48.734;9.152;2023-02-15T01:43:09;3.17;;;2.70;;
946;SDS011;460;48.734;9.152;2023-02-15T01:45:36;2.35;;;2.20;;
946;SDS011;460;48.734;9.152;2023-02-15T01:48:04;2.40;;;1.90;;
946;SDS011;460;48.734;9.152;2023-02-15T01:50:57;2.45;;;2.25;;
946;SDS011;460;48.734;9.152;2023-02-15T01:53:28;1.98;;;1.90;;
946;SDS011;460;48.734;9.152;2023-02-15T01:56:11;1.55;;;1.33;;
946;SDS011;460;48.734;9.152;2023-02-15T01:58:42;2.38;;;2.00;;
946;SDS011;460;48.734;9.152;2023-02-15T02:01:10;1.67;;;1.30;;
946;SDS011;460;48.734;9.152;2023-02-15T02:03:38;3.15;;;2.25;;
946;SDS011;460;48.734;9.152;2023-02-15T02:06:16;1.40;;;1.15;;
946;SDS011;460;48.734;9.152;2023-02-15T02:08:44;11.50;;;1.92;;
946;SDS011;460;48.734;9.152;2023-02-15T02:11:13;6.20;;;3.50;;
946;SDS011;460;48.734;9.152;2023-02-15T02:13:41;1.33;;;1.23;;
946;SDS011;460;48.734;9.152;2023-02-15T02:16:11;1.40;;;1.25;;
946;SDS011;460;48.734;9.152;2023-02-15T02:18:46;3.58;;;2.40;;
946;SDS011;460;48.734;9.152;2023-02-15T02:21:31;2.05;;;1.10;;
946;SDS011;460;48.734;9.152;2023-02-15T02:27:25;3.13;;;2.85;;
946;SDS011;460;48.734;9.152;2023-02-15T02:30:20;2.65;;;2.55;;
946;SDS011;460;48.734;9.152;2023-02-15T02:36:07;2.67;;;2.58;;
946;SDS011;460;48.734;9.152;2023-02-15T02:38:44;1.98;;;1.88;;
946;SDS011;460;48.734;9.152;2023-02-15T02:41:21;1.60;;;1.50;;
946;SDS011;460;48.734;9.152;2023-02-15T02:43:54;2.15;;;1.90;;
946;SDS011;460;48.734;9.152;2023-02-15T02:46:33;1.90;;;1.75;;
946;SDS011;460;48.734;9.152;2023-02-15T02:49:06;4.45;;;2.50;;
946;SDS011;460;48.734;9.152;2023-02-15T02:51:34;1.92;;;1.80;;
946;SDS011;460;48.734;9.152;2023-02-15T02:54:03;3.33;;;2.45;;
946;SDS011;460;48.734;9.152;2023-02-15T02:56:36;1.35;;;1.35;;
946;SDS011;460;48.734;9.152;2023-02-15T02:59:07;3.13;;;2.25;;
946;SDS011;460;48.734;9.152;2023-02-15T03:01:40;2.15;;;1.90;;
946;SDS011;460;48.734;9.152;2023-02-15T03:04:12;3.90;;;2.53;;
946;SDS011;460;48.734;9.152;2023-02-15T03:06:41;2.58;;;2.20;;
946;SDS011;460;48.734;9.152;2023-02-15T03:09:14;6.35;;;3.15;;
946;SDS011;460;48.734;9.152;2023-02-15T03:11:46;2.30;;;2.20;;
946;SDS011;460;48.734;9.152;2023-02-15T03:14:14;3.22;;;2.45;;
946;SDS011;460;48.734;9.152;2023-02-15T03:16:45;5.43;;;4.50;;
946;SDS011;460;48.734;9.152;2023-02-15T03:19:16;1.35;;;1.23;;
946;SDS011;460;48.734;9.152;2023-02-15T03:21:49;2.38;;;2.28;;
946;SDS011;460;48.734;9.152;2023-02-15T03:24:30;1.67;;;1.08;;
946;SDS011;460;48.734;9.152;2023-02-15T03:27:01;4.35;;;1.70;;
946;SDS011;460;48.734;9.152;2023-02-15T03:29:31;12.50;;;2.38;;
946;SDS011;460;48.734;9.152;2023-02-15T03:31:59;2.78;;;2.38;;
946;SDS011;460;48.734;9.152;2023-02-15T03:34:32;1.42;;;1.42;;
946;SDS011;460;48.734;9.152;2023-02-15T03:37:00;2.50;;;1.60;;
946;SDS011;460;48.734;9.152;2023-02-15T03:39:33;1.73;;;1.63;;
946;SDS011;460;48.734;9.152;2023-02-15T03:42:05;2.67;;;2.47;;
946;SDS011;460;48.734;9.152;2023-02-15T03:44:41;1.17;;;1.17;;
946;SDS011;460;48.734;9.152;2023-02-15T03:47:15;7.55;;;2.63;;
946;SDS011;460;48.734;9.152;2023-02-15T03:49:50;2.22;;;2.13;;
946;SDS011;460;48.734;9.152;2023-02-15T03:52:20;4.70;;;2.70;;
946;SDS011;460;48.734;9.152;2023-02-15T03:54:52;3.47;;;3.20;;
946;SDS011;460;48.734;9.152;2023-02-15T03:57:21;3.95;;;2.60;;
946;SDS011;460;48.734;9.152;2023-02-15T04:00:11;3.45;;;3.15;;
946;SDS011;460;48.734;9.152;2023-02-15T04:03:05;1.90;;;1.80;;
946;SDS011;460;48.734;9.152;2023-02-15T04:05:40;4.72;;;2.67;;
946;SDS011;460;48.734;9.152;2023-02-15T04:08:09;1.65;;;1.55;;
946;SDS011;460;48.734;9.152;2023-02-15T04:10:36;2.83;;;1.45;;
946;SDS011;460;48.734;9.152;2023-02-15T04:13:17;4.35;;;3.80;;
946;SDS011;460;48.734;9.152;2023-02-15T04:15:44;1.20;;;1.10;;
946;SDS011;460;48.734;9.152;2023-02-15T04:18:28;1.98;;;1.88;;
946;SDS011;460;48.734;9.152;2023-02-15T04:21:13;3.53;;;3.30;;
946;SDS011;460;48.734;9.152;2023-02-15T04:23:58;2.85;;;2.75;;
946;SDS011;460;48.734;9.152;2023-02-15T04:26:43;3.38;;;3.17;;
946;SDS011;460;48.734;9.152;2023-02-15T04:29:09;3.60;;;3.30;;
946;SDS011;460;48.734;9.152;2023-02-15T04:31:36;1.85;;;1.75;;
946;SDS011;460;48.734;9.152;2023-02-15T04:34:03;6.00;;;3.40;;
946;SDS011;460;48.734;9.152;2023-02-15T04:36:31;1.17;;;1.10;;
946;SDS011;460;48.734;9.152;2023-02-15T04:38:58;5.05;;;2.78;;
946;SDS011;460;48.734;9.152;2023-02-15T04:41:25;2.58;;;2.03;;
946;SDS011;460;48.734;9.152;2023-02-15T04:43:51;3.05;;;2.78;;
946;SDS011;460;48.734;9.152;2023-02-15T04:46:18;4.22;;;2.47;;
946;SDS011;460;48.734;9.152;2023-02-15T04:48:45;2.17;;;2.05;;
946;SDS011;460;48.734;9.152;2023-02-15T04:51:11;3.33;;;2.97;;
946;SDS011;460;48.734;9.152;2023-02-15T04:53:40;1.25;;;1.25;;
946;SDS011;460;48.734;9.152;2023-02-15T04:56:06;2.05;;;1.88;;
946;SDS011;460;48.734;9.152;2023-02-15T04:58:33;3.03;;;1.80;;
946;SDS011;460;48.734;9.152;2023-02-15T05:01:02;2.30;;;2.20;;
946;SDS011;460;48.734;9.152;2023-02-15T05:03:29;2.67;;;1.75;;
946;SDS011;460;48.734;9.152;2023-02-15T05:05:56;10.23;;;3.72;;
946;SDS011;460;48.734;9.152;2023-02-15T05:08:22;4.50;;;2.05;;
946;SDS011;460;48.734;9.152;2023-02-15T05:10:51;1.80;;;1.70;;
946;SDS011;460;48.734;9.152;2023-02-15T05:13:17;10.80;;;5.18;;
946;SDS011;460;48.734;9.152;2023-02-15T05:15:46;1.55;;;1.45;;
946;SDS011;460;48.734;9.152;2023-02-15T05:18:14;1.95;;;1.85;;
946;SDS011;460;48.734;9.152;2023-02-15T05:20:41;2.47;;;2.28;;
946;SDS011;460;48.734;9.152;2023-02-15T05:23:08;3.20;;;2.65;;
946;SDS011;460;48.734;9.152;2023-02-15T05:25:34;1.83;;;1.63;;
946;SDS011;460;48.734;9.152;2023-02-15T05:28:20;4.90;;;3.15;;
946;SDS011;460;48.734;9.152;2023-02-15T05:30:48;0.93;;;0.93;;
946;SDS011;460;48.734;9.152;2023-02-15T05:33:17;2.72;;;2.40;;
946;SDS011;460;48.734;9.152;2023-02-15T05:35:43;4.07;;;1.90;;
946;SDS011;460;48.734;9.152;2023-02-15T05:38:10;2.38;;;2.20;;
946;SDS011;460;48.734;9.152;2023-02-15T05:40:37;1.42;;;1.33;;
946;SDS011;460;48.734;9.152;2023-02-15T05:43:04;2.05;;;1.67;;
946;SDS011;460;48.734;9.152;2023-02-15T05:45:32;1.77;;;1.73;;
946;SDS011;460;48.734;9.152;2023-02-15T05:47:58;2.78;;;1.40;;
946;SDS011;460;48.734;9.152;2023-02-15T05:50:25;3.15;;;2.35;;
946;SDS011;460;48.734;9.152;2023-02-15T05:52:52;1.90;;;1.75;;
946;SDS011;460;48.734;9.152;2023-02-15T05:55:19;2.35;;;2.15;;
946;SDS011;460;48.734;9.152;2023-02-15T05:57:46;4.05;;;3.47;;
946;SDS011;460;48.734;9.152;2023-02-15T06:00:13;3.28;;;2.78;;
946;SDS011;460;48.734;9.152;2023-02-15T06:02:42;1.85;;;1.75;;
946;SDS011;460;48.734;9.152;2023-02-15T06:05:09;3.47;;;2.83;;
946;SDS011;460;48.734;9.152;2023-02-15T06:07:35;1.67;;;1.52;;
946;SDS011;460;48.734;9.152;2023-02-15T06:10:02;3.47;;;2.05;;
946;SDS011;460;48.734;9.152;2023-02-15T06:12:30;4.10;;;2.80;;
946;SDS011;460;48.734;9.152;2023-02-15T06:14:56;3.78;;;3.58;;
946;SDS011;460;48.734;9.152;2023-02-15T06:17:23;4.18;;;3.67;;
946;SDS011;460;48.734;9.152;2023-02-15T06:19:51;2.42;;;2.22;;
946;SDS011;460;48.734;9.152;2023-02-15T06:22:18;0.95;;;0.95;;
946;SDS011;460;48.734;9.152;2023-02-15T06:24:45;2.75;;;2.65;;
946;SDS011;460;48.734;9.152;2023-02-15T06:27:12;2.78;;;2.13;;
946;SDS011;460;48.734;9.152;2023-02-15T06:29:39;2.42;;;2.33;;
946;SDS011;460;48.734;9.152;2023-02-15T06:32:06;12.32;;;3.35;;
946;SDS011;460;48.734;9.152;2023-02-15T06:34:32;5.28;;;2.67;;
946;SDS011;460;48.734;9.152;2023-02-15T06:37:01;2.53;;;2.33;;
946;SDS011;460;48.734;9.152;2023-02-15T06:39:27;3.35;;;2.88;;
946;SDS011;460;48.734;9.152;2023-02-15T06:41:54;2.65;;;2.45;;
946;SDS011;460;48.734;9.152;2023-02-15T06:44:21;1.70;;;1.60;;
946;SDS011;460;48.734;9.152;2023-02-15T06:46:48;2.78;;;2.40;;
946;SDS011;460;48.734;9.152;2023-02-15T06:49:14;3.03;;;2.15;;
946;SDS011;460;48.734;9.152;2023-02-15T06:51:41;3.45;;;3.15;;
946;SDS011;460;48.734;9.152;2023-02-15T06:54:09;2.40;;;1.75;;
946;SDS011;460;48.734;9.152;2023-02-15T06:56:36;3.97;;;2.95;;
946;SDS011;460;48.734;9.152;2023-02-15T06:59:03;2.22;;;1.83;;
946;SDS011;460;48.734;9.152;2023-02-15T07:01:30;2.00;;;1.80;;
946;SDS011;460;48.734;9.152;2023-02-15T07:03:57;4.28;;;3.30;;
946;SDS011;460;48.734;9.152;2023-02-15T07:06:24;2.00;;;1.90;;
946;SDS011;460;48.734;9.152;2023-02-15T07:08:51;8.50;;;4.93;;
946;SDS011;460;48.734;9.152;2023-02-15T07:11:19;2.08;;;1.98;;
946;SDS011;460;48.734;9.152;2023-02-15T07:14:03;4.25;;;4.05;;
946;SDS011;460;48.734;9.152;2023-02-15T07:16:30;1.90;;;1.80;;
946;SDS011;460;48.734;9.152;2023-02-15T07:18:57;9.43;;;2.75;;
946;SDS011;460;48.734;9.152;2023-02-15T07:21:23;3.78;;;1.92;;
946;SDS011;460;48.734;9.152;2023-02-15T07:23:50;2.78;;;2.58;;
946;SDS011;460;48.734;9.152;2023-02-15T07:26:18;2.10;;;1.88;;
946;SDS011;460;48.734;9.152;2023-02-15T07:28:45;3.95;;;2.47;;
946;SDS011;460;48.734;9.152;2023-02-15T07:31:12;2.65;;;2.03;;
946;SDS011;460;48.734;9.152;2023-02-15T07:33:39;2.63;;;2.35;;
946;SDS011;460;48.734;9.152;2023-02-15T07:36:06;2.08;;;1.92;;
946;SDS011;460;48.734;9.152;2023-02-15T07:38:36;2.15;;;2.05;;
946;SDS011;460;48.734;9.152;2023-02-15T07:41:05;17.95;;;3.33;;
946;SDS011;460;48.734;9.152;2023-02-15T07:43:35;6.95;;;2.55;;
946;SDS011;460;48.734;9.152;2023-02-15T07:46:04;3.20;;;2.90;;
946;SDS011;460;48.734;9.152;2023-02-15T07:48:32;5.00;;;2.22;;
946;SDS011;460;48.734;9.152;2023-02-15T07:51:00;3.28;;;3.08;;
946;SDS011;460;48.734;9.152;2023-02-15T07:53:27;4.13;;;3.33;;
946;SDS011;460;48.734;9.152;2023-02-15T07:55:57;6.30;;;3.80;;
946;SDS011;460;48.734;9.152;2023-02-15T07:58:24;7.63;;;4.88;;
946;SDS011;460;48.734;9.152;2023-02-15T08:01:13;1.52;;;1.42;;
946;SDS011;460;48.734;9.152;2023-02-15T08:03:40;3.45;;;3.22;;
946;SDS011;460;48.734;9.152;2023-02-15T08:06:10;3.97;;;1.85;;
946;SDS011;460;48.734;9.152;2023-02-15T08:08:38;3.95;;;3.58;;
946;SDS011;460;48.734;9.152;2023-02-15T08:11:06;7.97;;;3.38;;
946;SDS011;460;48.734;9.152;2023-02-15T08:13:54;2.42;;;2.33;;
946;SDS011;460;48.734;9.152;2023-02-15T08:16:26;3.72;;;3.35;;
946;SDS011;460;48.734;9.152;2023-02-15T08:18:55;3.00;;;2.20;;
946;SDS011;460;48.734;9.152;2023-02-15T08:21:22;3.97;;;3.70;;
946;SDS011;460;48.734;9.152;2023-02-15T08:23:50;5.20;;;2.80;;
946;SDS011;460;48.734;9.152;2023-02-15T08:26:17;2.42;;;2.30;;
946;SDS011;460;48.734;9.152;2023-02-15T08:28:44;6.63;;;3.00;;
946;SDS011;460;48.734;9.152;2023-02-15T08:31:12;2.67;;;2.47;;
946;SDS011;460;48.734;9.152;2023-02-15T08:33:41;6.35;;;3.58;;
946;SDS011;460;48.734;9.152;2023-02-15T08:36:10;4.07;;;3.70;;
946;SDS011;460;48.734;9.152;2023-02-15T08:38:41;3.85;;;3.65;;
946;SDS011;460;48.734;9.152;2023-02-15T08:41:09;4.30;;;3.85;;
946;SDS011;460;48.734;9.152;2023-02-15T08:43:36;3.22;;;2.85;;
946;SDS011;460;48.734;9.152;2023-02-15T08:46:03;6.07;;;3.78;;
946;SDS011;460;48.734;9.152;2023-02-15T08:48:30;5.10;;;3.30;;
946;SDS011;460;48.734;9.152;2023-02-15T08:50:58;2.38;;;2.28;;
946;SDS011;460;48.734;9.152;2023-02-15T08:53:29;13.98;;;3.90;;
946;SDS011;460;48.734;9.152;2023-02-15T08:55:56;6.25;;;2.95;;
946;SDS011;460;48.734;9.152;2023-02-15T08:58:23;3.50;;;2.58;;
946;SDS011;460;48.734;9.152;2023-02-15T09:00:50;4.55;;;4.25;;
946;SDS011;460;48.734;9.152;2023-02-15T09:03:17;4.90;;;3.47;;
946;SDS011;460;48.734;9.152;2023-02-15T09:05:44;4.35;;;3.55;;
946;SDS011;460;48.734;9.152;2023-02-15T09:08:12;3.05;;;2.10;;
946;SDS011;460;48.734;9.152;2023-02-15T09:10:39;6.57;;;3.55;;
946;SDS011;460;48.734;9.152;2023-02-15T09:13:06;5.15;;;4.55;;
946;SDS011;460;48.734;9.152;2023-02-15T09:15:33;7.10;;;3.40;;
946;SDS011;460;48.734;9.152;2023-02-15T09:17:59;4.55;;;3.72;;
946;SDS011;460;48.734;9.152;2023-02-15T09:20:30;3.90;;;3.58;;
946;SDS011;460;48.734;9.152;2023-02-15T09:22:58;3.47;;;3.10;;
946;SDS011;460;48.734;9.152;2023-02-15T09:25:26;6.22;;;2.97;;
946;SDS011;460;48.734;9.152;2023-02-15T09:27:53;2.83;;;2.63;;
946;SDS011;460;48.734;9.152;2023-02-15T09:30:20;2.85;;;2.63;;
946;SDS011;460;48.734;9.152;2023-02-15T09:32:47;4.35;;;2.58;;
946;SDS011;460;48.734;9.152;2023-02-15T09:35:14;3.95;;;2.97;;
946;SDS011;460;48.734;9.152;2023-02-15T09:37:40;5.15;;;4.22;;
946;SDS011;460;48.734;9.152;2023-02-15T09:40:07;5.20;;;4.80;;
946;SDS011;460;48.734;9.152;2023-02-15T09:42:45;4.15;;;3.63;;
946;SDS011;460;48.734;9.152;2023-02-15T09:45:31;6.20;;;5.35;;
946;SDS011;460;48.734;9.152;2023-02-15T09:48:18;4.70;;;4.22;;
946;SDS011;460;48.734;9.152;2023-02-15T09:51:02;3.65;;;3.35;;
946;SDS011;460;48.734;9.152;2023-02-15T09:53:42;7.60;;;5.60;;
946;SDS011;460;48.734;9.152;2023-02-15T09:56:21;5.63;;;5.22;;
946;SDS011;460;48.734;9.152;2023-02-15T09:58:59;3.60;;;3.35;;
946;SDS011;460;48.734;9.152;2023-02-15T10:01:33;5.00;;;4.55;;
946;SDS011;460;48.734;9.152;2023-02-15T10:04:14;5.95;;;5.45;;
946;SDS011;460;48.734;9.152;2023-02-15T10:07:00;4.70;;;3.58;;
946;SDS011;460;48.734;9.152;2023-02-15T10:09:39;5.45;;;4.97;;
946;SDS011;460;48.734;9.152;2023-02-15T10:12:25;4.50;;;4.07;;
946;SDS011;460;48.734;9.152;2023-02-15T10:15:16;5.47;;;4.65;;
946;SDS011;460;48.734;9.152;2023-02-15T10:17:52;7.60;;;4.28;;
946;SDS011;460;48.734;9.152;2023-02-15T10:20:33;7.63;;;4.10;;
946;SDS011;460;48.734;9.152;2023-02-15T10:26:16;4.95;;;4.53;;
946;SDS011;460;48.734;9.152;2023-02-15T10:28:46;5.80;;;5.30;;
946;SDS011;460;48.734;9.152;2023-02-15T10:31:20;6.20;;;4.80;;
946;SDS011;460;48.734;9.152;2023-02-15T10:33:52;9.55;;;4.60;;
946;SDS011;460;48.734;9.152;2023-02-15T10:36:36;5.80;;;5.30;;
946;SDS011;460;48.734;9.152;2023-02-15T10:39:25;5.07;;;4.63;;
946;SDS011;460;48.734;9.152;2023-02-15T10:42:01;4.72;;;3.63;;
946;SDS011;460;48.734;9.152;2023-02-15T10:44:40;5.35;;;4.85;;
946;SDS011;460;48.734;9.152;2023-02-15T10:47:30;5.68;;;3.75;;
946;SDS011;460;48.734;9.152;2023-02-15T10:53:03;4.90;;;3.42;;
946;SDS011;460;48.734;9.152;2023-02-15T10:55:42;9.15;;;5.40;;
946;SDS011;460;48.734;9.152;2023-02-15T10:58:18;6.47;;;4.72;;
946;SDS011;460;48.734;9.152;2023-02-15T11:00:52;14.32;;;7.70;;
946;SDS011;460;48.734;9.152;2023-02-15T11:06:21;7.72;;;5.05;;
946;SDS011;460;48.734;9.152;2023-02-15T11:08:50;4.80;;;3.75;;
946;SDS011;460;48.734;9.152;2023-02-15T11:11:21;7.40;;;4.90;;
946;SDS011;460;48.734;9.152;2023-02-15T11:13:51;10.10;;;8.57;;
946;SDS011;460;48.734;9.152;2023-02-15T11:16:23;7.70;;;5.90;;
946;SDS011;460;48.734;9.152;2023-02-15T11:18:57;6.20;;;4.53;;
946;SDS011;460;48.734;9.152;2023-02-15T11:21:29;5.75;;;5.28;;
946;SDS011;460;48.734;9.152;2023-02-15T11:24:07;6.38;;;4.90;;
946;SDS011;460;48.734;9.152;2023-02-15T11:26:37;10.48;;;4.72;;
946;SDS011;460;48.734;9.152;2023-02-15T11:29:10;11.80;;;5.68;;
946;SDS011;460;48.734;9.152;2023-02-15T11:31:41;17.43;;;7.10;;
946;SDS011;460;48.734;9.152;2023-02-15T11:34:13;7.05;;;5.20;;
946;SDS011;460;48.734;9.152;2023-02-15T11:36:46;7.83;;;5.77;;
946;SDS011;460;48.734;9.152;2023-02-15T11:39:17;9.63;;;6.47;;
946;SDS011;460;48.734;9.152;2023-02-15T11:41:46;7.73;;;3.80;;
946;SDS011;460;48.734;9.152;2023-02-15T11:44:17;11.17;;;6.67;;
946;SDS011;460;48.734;9.152;2023-02-15T11:46:48;11.30;;;6.00;;
946;SDS011;460;48.734;9.152;2023-02-15T11:49:21;6.17;;;5.50;;
946;SDS011;460;48.734;9.152;2023-02-15T11:51:56;5.07;;;4.50;;
946;SDS011;460;48.734;9.152;2023-02-15T11:54:25;8.73;;;6.03;;
946;SDS011;460;48.734;9.152;2023-02-15T11:56:55;13.60;;;8.13;;
946;SDS011;460;48.734;9.152;2023-02-15T11:59:26;7.53;;;5.60;;
946;SDS011;460;48.734;9.152;2023-02-15T12:01:56;10.40;;;6.23;;
946;SDS011;460;48.734;9.152;2023-02-15T12:04:25;17.57;;;8.57;;
946;SDS011;460;48.734;9.152;2023-02-15T12:06:57;8.60;;;6.30;;
946;SDS011;460;48.734;9.152;2023-02-15T12:09:28;8.50;;;6.00;;
946;SDS011;460;48.734;9.152;2023-02-15T12:14:49;7.47;;;6.23;;
946;SDS011;460;48.734;9.152;2023-02-15T12:17:17;13.57;;;7.73;;
946;SDS011;460;48.734;9.152;2023-02-15T12:19:47;8.30;;;6.73;;
946;SDS011;460;48.734;9.152;2023-02-15T12:22:19;8.73;;;7.77;;
946;SDS011;460;48.734;9.152;2023-02-15T12:24:50;7.33;;;6.37;;
946;SDS011;460;48.734;9.152;2023-02-15T12:27:19;11.20;;;6.50;;
946;SDS011;460;48.734;9.152;2023-02-15T12:29:48;10.37;;;6.03;;
946;SDS011;460;48.734;9.152;2023-02-15T12:32:17;8.70;;;6.73;;
946;SDS011;460;48.734;9.152;2023-02-15T12:34:49;13.90;;;7.90;;
946;SDS011;460;48.734;9.152;2023-02-15T12:37:19;11.57;;;8.47;;
946;SDS011;460;48.734;9.152;2023-02-15T12:39:53;9.40;;;7.70;;
946;SDS011;460;48.734;9.152;2023-02-15T12:42:22;6.10;;;5.40;;
946;SDS011;460;48.734;9.152;2023-02-15T12:44:53;8.73;;;6.83;;
946;SDS011;460;48.734;9.152;2023-02-15T12:47:25;9.13;;;7.63;;
946;SDS011;460;48.734;9.152;2023-02-15T12:50:07;9.27;;;7.43;;
946;SDS011;460;48.734;9.152;2023-02-15T12:52:42;10.30;;;6.30;;
946;SDS011;460;48.734;9.152;2023-02-15T12:55:11;13.30;;;7.30;;
946;SDS011;460;48.734;9.152;2023-02-15T12:57:45;7.70;;;6.97;;
946;SDS011;460;48.734;9.152;2023-02-15T13:00:24;9.63;;;7.00;;
946;SDS011;460;48.734;9.152;2023-02-15T13:02:54;10.40;;;5.50;;
946;SDS011;460;48.734;9.152;2023-02-15T13:05:25;12.67;;;8.40;;
946;SDS011;460;48.734;9.152;2023-02-15T13:07:57;10.27;;;7.80;;
946;SDS011;460;48.734;9.152;2023-02-15T13:10:26;7.00;;;6.20;;
946;SDS011;460;48.734;9.152;2023-02-15T13:12:56;6.33;;;5.70;;
946;SDS011;460;48.734;9.152;2023-02-15T13:15:25;10.33;;;8.40;;
946;SDS011;460;48.734;9.152;2023-02-15T13:17:57;6.23;;;5.80;;
946;SDS011;460;48.734;9.152;2023-02-15T13:20:26;9.47;;;6.63;;
946;SDS011;460;48.734;9.152;2023-02-15T13:22:57;13.00;;;8.90;;
946;SDS011;460;48.734;9.152;2023-02-15T13:25:27;10.40;;;8.07;;
946;SDS011;460;48.734;9.152;2023-02-15T13:28:00;8.53;;;6.70;;
946;SDS011;460;48.734;9.152;2023-02-15T13:30:30;8.23;;;7.43;;
946;SDS011;460;48.734;9.152;2023-02-15T13:33:01;11.47;;;5.43;;
946;SDS011;460;48.734;9.152;2023-02-15T13:35:33;10.17;;;6.97;;
946;SDS011;460;48.734;9.152;2023-02-15T13:38:11;8.70;;;7.73;;
946;SDS011;460;48.734;9.152;2023-02-15T13:40:50;5.37;;;4.73;;
946;SDS011;460;48.734;9.152;2023-02-15T13:43:24;13.63;;;6.83;;
946;SDS011;460;48.734;9.152;2023-02-15T13:46:07;12.10;;;9.27;;
946;SDS011;460;48.734;9.152;2023-02-15T13:48:41;12.10;;;8.00;;
946;SDS011;460;48.734;9.152;2023-02-15T13:51:19;8.10;;;6.10;;
946;SDS011;460;48.734;9.152;2023-02-15T13:53:58;20.77;;;7.47;;
946;SDS011;460;48.734;9.152;2023-02-15T13:56:48;8.73;;;7.00;;
946;SDS011;460;48.734;9.152;2023-02-15T13:59:31;8.90;;;7.13;;
946;SDS011;460;48.734;9.152;2023-02-15T14:02:21;8.53;;;5.97;;
946;SDS011;460;48.734;9.152;2023-02-15T14:05:14;7.93;;;7.20;;
946;SDS011;460;48.734;9.152;2023-02-15T14:08:00;8.37;;;6.60;;
946;SDS011;460;48.734;9.152;2023-02-15T14:10:40;9.17;;;6.67;;
946;SDS011;460;48.734;9.152;2023-02-15T14:13:21;6.77;;;5.60;;
946;SDS011;460;48.734;9.152;2023-02-15T14:16:06;11.87;;;7.80;;
946;SDS011;460;48.734;9.152;2023-02-15T14:18:40;17.53;;;5.77;;
946;SDS011;460;48.734;9.152;2023-02-15T14:21:10;8.77;;;7.87;;
946;SDS011;460;48.734;9.152;2023-02-15T14:23:51;10.50;;;7.23;;
946;SDS011;460;48.734;9.152;2023-02-15T14:26:26;10.63;;;6.47;;
946;SDS011;460;48.734;9.152;2023-02-15T14:29:04;9.40;;;7.20;;
946;SDS011;460;48.734;9.152;2023-02-15T14:31:42;12.50;;;9.77;;
946;SDS011;460;48.734;9.152;2023-02-15T14:34:17;8.17;;;6.00;;
946;SDS011;460;48.734;9.152;2023-02-15T14:36:48;8.10;;;6.33;;
946;SDS011;460;48.734;9.152;2023-02-15T14:39:20;11.37;;;7.40;;
946;SDS011;460;48.734;9.152;2023-02-15T14:42:14;8.07;;;6.70;;
946;SDS011;460;48.734;9.152;2023-02-15T14:44:47;9.40;;;7.10;;
946;SDS011;460;48.734;9.152;2023-02-15T14:47:19;8.90;;;6.17;;
946;SDS011;460;48.734;9.152;2023-02-15T14:49:48;12.80;;;7.57;;
946;SDS011;460;48.734;9.152;2023-02-15T14:52:15;8.23;;;6.53;;
946;SDS011;460;48.734;9.152;2023-02-15T14:55:01;9.67;;;8.30;;
946;SDS011;460;48.734;9.152;2023-02-15T14:57:33;19.37;;;8.63;;
946;SDS011;460;48.734;9.152;2023-02-15T15:00:02;20.20;;;8.20;;
946;SDS011;460;48.734;9.152;2023-02-15T15:02:54;10.10;;;7.10;;
946;SDS011;460;48.734;9.152;2023-02-15T15:05:23;12.30;;;6.20;;
946;SDS011;460;48.734;9.152;2023-02-15T15:07:56;12.27;;;7.47;;
946;SDS011;460;48.734;9.152;2023-02-15T15:10:37;16.77;;;11.00;;
946;SDS011;460;48.734;9.152;2023-02-15T15:22:39;7.63;;;5.83;;
946;SDS011;460;48.734;9.152;2023-02-15T15:25:11;11.80;;;7.40;;
946;SDS011;460;48.734;9.152;2023-02-15T15:27:55;10.80;;;8.90;;
946;SDS011;460;48.734;9.152;2023-02-15T15:42:42;16.47;;;11.60;;
946;SDS011;460;48.734;9.152;2023-02-15T15:48:26;11.97;;;7.57;;
946;SDS011;460;48.734;9.152;2023-02-15T15:50:59;9.73;;;8.57;;
946;SDS011;460;48.734;9.152;2023-02-15T15:53:32;12.35;;;7.55;;
946;SDS011;460;48.734;9.152;2023-02-15T15:56:04;10.20;;;8.30;;
946;SDS011;460;48.734;9.152;2023-02-15T15:58:40;9.87;;;6.30;;
946;SDS011;460;48.734;9.152;2023-02-15T16:05:15;7.33;;;5.80;;
946;SDS011;460;48.734;9.152;2023-02-15T16:07:46;8.50;;;6.70;;
946;SDS011;460;48.734;9.152;2023-02-15T16:10:25;11.73;;;8.10;;
946;SDS011;460;48.734;9.152;2023-02-15T16:12:53;11.00;;;5.90;;
946;SDS011;460;48.734;9.152;2023-02-15T16:15:22;10.23;;;8.90;;
946;SDS011;460;48.734;9.152;2023-02-15T16:17:52;6.80;;;4.70;;
946;SDS011;460;48.734;9.152;2023-02-15T16:20:22;11.57;;;6.67;;
946;SDS011;460;48.734;9.152;2023-02-15T16:22:52;12.03;;;6.70;;
946;SDS011;460;48.734;9.152;2023-02-15T16:25:31;7.63;;;6.27;;
946;SDS011;460;48.734;9.152;2023-02-15T16:28:06;9.77;;;6.70;;
946;SDS011;460;48.734;9.152;2023-02-15T16:30:34;10.27;;;8.40;;
946;SDS011;460;48.734;9.152;2023-02-15T16:33:07;9.70;;;5.30;;
946;SDS011;460;48.734;9.152;2023-02-15T16:35:36;20.63;;;6.30;;
946;SDS011;460;48.734;9.152;2023-02-15T16:38:05;11.33;;;6.60;;
946;SDS011;460;48.734;9.152;2023-02-15T16:40:37;7.50;;;5.50;;
946;SDS011;460;48.734;9.152;2023-02-15T16:43:20;9.43;;;6.20;;
946;SDS011;460;48.734;9.152;2023-02-15T16:45:49;7.33;;;6.53;;
946;SDS011;460;48.734;9.152;2023-02-15T16:48:20;8.93;;;6.73;;
946;SDS011;460;48.734;9.152;2023-02-15T16:50:51;8.60;;;7.43;;
946;SDS011;460;48.734;9.152;2023-02-15T16:53:21;7.77;;;5.70;;
946;SDS011;460;48.734;9.152;2023-02-15T16:55:51;6.43;;;5.83;;
946;SDS011;460;48.734;9.152;2023-02-15T16:58:23;14.75;;;8.70;;